Time;durP1;ratioP1;P1;durP2;ratioP2;P2;SDS_P1;SDS_P2;PMS_P1;PMS_P2;Temp;Humidity;BMP_temperature;BMP_pressure;BME280_temperature;BME280_humidity;BME280_pressure;Samples;Min_cycle;Max_cycle;Signal;HPM_P1;HPM_P2
2023/02/25 00:00:16;;;;;;;49.50;36.72;;;;;;;;;;10341213;28;20485;-61
2023/02/25 00:05:16;;;;;;;40.95;30.33;;;;;;;;;;10347108;28;20071;-62
2023/02/25 00:10:14;;;;;;;38.90;27.13;;;;;;;;;;10340849;28;20075;-63
2023/02/25 00:15:12;;;;;;;41.53;31.85;;;;;;;;;;10338838;28;20059;-63
2023/02/25 00:20:12;;;;;;;39.95;29.65;;;;;;;;;;10343649;28;20072;-62
2023/02/25 00:25:13;;;;;;;33.85;25.25;;;;;;;;;;10338841;28;20067;-63
2023/02/25 00:30:12;;;;;;;28.15;20.63;;;;;;;;;;10340904;28;20668;-62
2023/02/25 00:35:11;;;;;;;26.27;20.00;;;;;;;;;;10338597;28;20075;-62
2023/02/25 00:40:13;;;;;;;28.52;22.17;;;;;;;;;;10341692;28;20784;-62
2023/02/25 00:45:13;;;;;;;36.63;23.73;;;;;;;;;;10338188;28;20092;-62
2023/02/25 00:50:13;;;;;;;28.60;22.52;;;;;;;;;;10335503;28;20515;-61
2023/02/25 00:55:11;;;;;;;23.25;19.98;;;;;;;;;;10339092;28;20060;-62
2023/02/25 01:00:14;;;;;;;20.95;17.35;;;;;;;;;;10346794;28;20079;-62
2023/02/25 01:05:15;;;;;;;27.48;17.92;;;;;;;;;;10335045;28;20048;-62
2023/02/25 01:10:13;;;;;;;17.58;15.65;;;;;;;;;;10342108;28;20060;-62
2023/02/25 01:15:12;;;;;;;21.73;16.95;;;;;;;;;;10347743;28;20072;-61
2023/02/25 01:20:11;;;;;;;26.42;19.52;;;;;;;;;;10344668;28;20079;-61
2023/02/25 01:25:15;;;;;;;23.42;19.40;;;;;;;;;;10346675;28;20581;-61
2023/02/25 01:30:13;;;;;;;23.40;18.52;;;;;;;;;;10347661;28;20075;-62
2023/02/25 01:35:11;;;;;;;21.13;18.50;;;;;;;;;;10346743;28;20063;-62
2023/02/25 01:40:15;;;;;;;23.25;17.80;;;;;;;;;;10345683;28;20083;-63
2023/02/25 01:45:26;;;;;;;24.55;20.25;;;;;;;;;;10350745;28;20072;-61
2023/02/25 01:50:28;;;;;;;25.65;19.67;;;;;;;;;;10341687;28;20099;-63
2023/02/25 01:55:26;;;;;;;21.25;16.10;;;;;;;;;;10347140;28;20585;-63
2023/02/25 02:00:27;;;;;;;20.70;16.38;;;;;;;;;;10358782;28;20524;-61
2023/02/25 02:05:32;;;;;;;22.77;17.63;;;;;;;;;;10347762;28;20070;-61
2023/02/25 02:10:30;;;;;;;19.50;16.90;;;;;;;;;;10348279;28;20106;-62
2023/02/25 02:15:32;;;;;;;21.27;15.98;;;;;;;;;;10353995;28;20071;-62
2023/02/25 02:20:35;;;;;;;17.17;15.38;;;;;;;;;;10341660;28;20102;-62
2023/02/25 02:25:54;;;;;;;14.15;12.55;;;;;;;;;;10347073;28;20080;-61
2023/02/25 02:31:07;;;;;;;15.13;13.00;;;;;;;;;;10343052;28;20119;-63
2023/02/25 02:36:07;;;;;;;16.17;12.30;;;;;;;;;;10346612;28;20063;-63
2023/02/25 02:41:07;;;;;;;12.77;11.57;;;;;;;;;;10352004;28;20083;-63
2023/02/25 02:46:10;;;;;;;20.88;11.32;;;;;;;;;;10346416;28;20457;-62
2023/02/25 02:51:11;;;;;;;13.35;11.70;;;;;;;;;;10350112;28;20444;-62
2023/02/25 02:56:12;;;;;;;14.48;13.00;;;;;;;;;;10346849;28;20083;-62
2023/02/25 03:01:13;;;;;;;12.93;11.00;;;;;;;;;;10343076;28;20079;-62
2023/02/25 03:06:14;;;;;;;12.68;11.00;;;;;;;;;;10344613;28;20067;-62
2023/02/25 03:11:13;;;;;;;13.52;10.63;;;;;;;;;;10346651;28;20068;-62
2023/02/25 03:16:20;;;;;;;13.82;11.73;;;;;;;;;;10346075;28;20070;-62
2023/02/25 03:21:21;;;;;;;15.50;12.10;;;;;;;;;;10350683;28;20522;-62
2023/02/25 03:26:22;;;;;;;14.68;12.50;;;;;;;;;;10342234;28;20078;-62
2023/02/25 03:31:29;;;;;;;14.70;13.05;;;;;;;;;;10350709;28;20083;-62
2023/02/25 03:36:31;;;;;;;16.33;14.52;;;;;;;;;;10347554;28;20059;-62
2023/02/25 03:41:34;;;;;;;19.90;15.10;;;;;;;;;;10342766;28;20090;-62
2023/02/25 03:46:35;;;;;;;17.23;14.85;;;;;;;;;;10345031;28;20743;-62
2023/02/25 03:51:34;;;;;;;17.17;13.85;;;;;;;;;;10352851;28;20555;-62
2023/02/25 03:56:40;;;;;;;17.45;13.93;;;;;;;;;;10338179;28;20079;-62
2023/02/25 04:01:40;;;;;;;20.35;13.55;;;;;;;;;;10347089;28;20076;-62
2023/02/25 04:06:39;;;;;;;18.52;15.13;;;;;;;;;;10347945;28;20192;-61
2023/02/25 04:11:37;;;;;;;21.42;14.82;;;;;;;;;;10342008;28;20498;-61
2023/02/25 04:16:36;;;;;;;20.38;15.73;;;;;;;;;;10341232;28;20492;-61
2023/02/25 04:21:38;;;;;;;21.65;16.67;;;;;;;;;;10341705;28;20494;-61
2023/02/25 04:26:36;;;;;;;21.95;17.08;;;;;;;;;;10340928;28;20044;-61
2023/02/25 04:31:34;;;;;;;24.15;16.85;;;;;;;;;;10339241;28;20068;-62
2023/02/25 04:36:33;;;;;;;22.55;15.90;;;;;;;;;;10339635;28;20075;-61
2023/02/25 04:41:34;;;;;;;21.40;16.50;;;;;;;;;;10346066;28;20079;-61
2023/02/25 04:46:32;;;;;;;20.05;16.13;;;;;;;;;;10342444;28;20094;-61
2023/02/25 04:51:31;;;;;;;19.02;16.42;;;;;;;;;;10344946;28;20430;-61
2023/02/25 04:56:29;;;;;;;17.00;15.20;;;;;;;;;;10345209;28;20063;-62
2023/02/25 05:01:30;;;;;;;17.17;14.48;;;;;;;;;;10340811;28;20076;-62
2023/02/25 05:06:28;;;;;;;22.30;16.25;;;;;;;;;;10343364;28;20067;-61
2023/02/25 05:11:28;;;;;;;22.85;16.55;;;;;;;;;;10341406;28;20083;-62
2023/02/25 05:16:26;;;;;;;28.30;17.02;;;;;;;;;;10339346;28;20501;-60
2023/02/25 05:21:26;;;;;;;22.05;15.63;;;;;;;;;;10331894;28;20086;-61
2023/02/25 05:26:25;;;;;;;21.60;15.50;;;;;;;;;;10342783;28;20118;-62
2023/02/25 05:31:24;;;;;;;22.33;15.90;;;;;;;;;;10342758;28;20063;-62
2023/02/25 05:36:23;;;;;;;25.30;16.42;;;;;;;;;;10336382;28;20071;-62
2023/02/25 05:41:26;;;;;;;20.85;15.82;;;;;;;;;;10339879;28;20158;-62
2023/02/25 05:46:25;;;;;;;23.63;18.30;;;;;;;;;;10330972;28;20070;-62
2023/02/25 05:51:24;;;;;;;24.40;17.88;;;;;;;;;;10336327;28;20063;-62
2023/02/25 05:56:23;;;;;;;28.02;19.05;;;;;;;;;;10339726;28;20079;-62
2023/02/25 06:01:26;;;;;;;23.05;17.63;;;;;;;;;;10342867;28;20083;-62
2023/02/25 06:06:25;;;;;;;26.08;18.85;;;;;;;;;;10343108;28;20071;-62
2023/02/25 06:11:24;;;;;;;26.23;20.08;;;;;;;;;;10345569;28;20446;-62
2023/02/25 06:16:24;;;;;;;28.50;21.02;;;;;;;;;;10342250;28;20086;-63
2023/02/25 06:21:23;;;;;;;26.27;18.70;;;;;;;;;;10349682;28;20063;-61
2023/02/25 06:26:22;;;;;;;70.07;52.72;;;;;;;;;;10348024;28;20072;-62
2023/02/25 06:31:22;;;;;;;57.85;45.08;;;;;;;;;;10339107;28;20075;-61
2023/02/25 06:36:21;;;;;;;84.80;66.07;;;;;;;;;;10349595;28;20075;-61
2023/02/25 06:41:21;;;;;;;72.57;56.08;;;;;;;;;;10349514;28;20080;-61
2023/02/25 06:46:20;;;;;;;51.72;38.08;;;;;;;;;;10346961;28;20078;-62
2023/02/25 06:51:19;;;;;;;31.95;26.00;;;;;;;;;;10350966;28;20121;-60
2023/02/25 06:56:20;;;;;;;82.35;61.60;;;;;;;;;;10355760;28;20056;-61
2023/02/25 07:01:19;;;;;;;72.07;56.97;;;;;;;;;;10345049;28;20099;-61
2023/02/25 07:06:18;;;;;;;92.40;67.03;;;;;;;;;;10346701;28;20481;-61
2023/02/25 07:11:27;;;;;;;144.15;102.85;;;;;;;;;;10342160;28;20076;-62
2023/02/25 07:16:28;;;;;;;127.60;90.10;;;;;;;;;;10347671;28;20056;-61
2023/02/25 07:21:28;;;;;;;102.15;74.50;;;;;;;;;;10342588;28;20060;-61
2023/02/25 07:26:28;;;;;;;93.60;64.57;;;;;;;;;;10340439;28;20071;-62
2023/02/25 07:31:27;;;;;;;83.10;63.20;;;;;;;;;;10343611;28;20074;-62
2023/02/25 07:36:27;;;;;;;166.95;109.68;;;;;;;;;;10351155;28;20060;-61
2023/02/25 07:41:25;;;;;;;128.93;84.40;;;;;;;;;;10347629;28;20082;-62
2023/02/25 07:46:25;;;;;;;130.43;90.30;;;;;;;;;;10343647;28;20067;-60
2023/02/25 07:51:24;;;;;;;60.75;43.22;;;;;;;;;;10341880;28;20462;-61
2023/02/25 07:56:24;;;;;;;74.57;49.88;;;;;;;;;;10338317;28;20079;-61
2023/02/25 08:01:23;;;;;;;68.93;50.50;;;;;;;;;;10343320;28;20071;-62
2023/02/25 08:06:23;;;;;;;70.15;51.95;;;;;;;;;;10341059;28;20079;-61
2023/02/25 08:11:22;;;;;;;55.63;39.33;;;;;;;;;;10339763;28;20453;-61
2023/02/25 08:16:21;;;;;;;91.65;51.63;;;;;;;;;;10342008;28;20087;-63
2023/02/25 08:21:21;;;;;;;90.47;49.08;;;;;;;;;;10345544;28;20070;-61
2023/02/25 08:26:22;;;;;;;77.25;42.40;;;;;;;;;;10345316;28;20068;-61
2023/02/25 08:31:21;;;;;;;70.57;42.60;;;;;;;;;;10340392;28;20064;-60
2023/02/25 08:36:21;;;;;;;47.10;35.22;;;;;;;;;;10344761;28;20068;-61
2023/02/25 08:41:20;;;;;;;42.50;30.02;;;;;;;;;;10346707;28;20067;-62
2023/02/25 08:46:21;;;;;;;31.42;26.92;;;;;;;;;;10348467;28;20067;-61
2023/02/25 08:51:20;;;;;;;29.83;23.13;;;;;;;;;;10341364;28;20536;-61
2023/02/25 08:56:18;;;;;;;28.30;23.23;;;;;;;;;;10342178;28;20466;-61
2023/02/25 09:01:17;;;;;;;21.95;17.23;;;;;;;;;;10333308;28;20063;-61
2023/02/25 09:06:17;;;;;;;31.65;21.58;;;;;;;;;;10332081;28;20064;-62
2023/02/25 09:11:15;;;;;;;30.95;25.45;;;;;;;;;;10334991;28;20068;-62
2023/02/25 09:16:16;;;;;;;30.58;22.58;;;;;;;;;;10336900;28;20064;-62
2023/02/25 09:21:14;;;;;;;32.75;23.35;;;;;;;;;;10339099;28;20083;-61
2023/02/25 09:26:14;;;;;;;23.13;19.35;;;;;;;;;;10332527;28;20464;-63
2023/02/25 09:31:13;;;;;;;23.92;19.40;;;;;;;;;;10350004;28;20064;-63
2023/02/25 09:36:12;;;;;;;28.38;18.95;;;;;;;;;;10355454;28;20500;-62
2023/02/25 09:41:17;;;;;;;33.65;22.17;;;;;;;;;;10343502;28;20078;-62
2023/02/25 09:46:17;;;;;;;38.20;25.30;;;;;;;;;;10334140;28;20505;-62
2023/02/25 09:51:19;;;;;;;23.80;18.10;;;;;;;;;;10340154;28;20071;-62
2023/02/25 09:56:19;;;;;;;35.92;26.55;;;;;;;;;;10346577;28;20509;-62
2023/02/25 10:01:26;;;;;;;34.20;25.75;;;;;;;;;;10341460;28;20064;-62
2023/02/25 10:06:28;;;;;;;37.78;20.33;;;;;;;;;;10344800;28;20064;-61
2023/02/25 10:11:38;;;;;;;39.60;24.35;;;;;;;;;;10343540;28;20064;-62
2023/02/25 10:16:42;;;;;;;29.35;22.27;;;;;;;;;;10343947;28;20079;-62
2023/02/25 10:21:51;;;;;;;26.67;22.63;;;;;;;;;;10345488;28;20075;-61
2023/02/25 10:26:54;;;;;;;32.92;24.10;;;;;;;;;;10346168;28;20529;-61
2023/02/25 10:31:54;;;;;;;47.22;34.15;;;;;;;;;;10346321;28;20502;-61
2023/02/25 10:36:54;;;;;;;36.17;22.13;;;;;;;;;;10346733;28;20131;-61
2023/02/25 10:41:54;;;;;;;26.67;17.65;;;;;;;;;;10343722;28;20079;-61
2023/02/25 10:46:54;;;;;;;38.95;22.30;;;;;;;;;;10345165;28;20072;-61
2023/02/25 10:52:01;;;;;;;36.08;26.55;;;;;;;;;;10345645;28;20072;-61
2023/02/25 10:57:07;;;;;;;47.83;32.95;;;;;;;;;;10342438;28;20072;-62
2023/02/25 11:02:05;;;;;;;44.30;26.67;;;;;;;;;;10344659;28;20071;-62
2023/02/25 11:07:22;;;;;;;47.78;25.40;;;;;;;;;;10344005;28;20082;-62
2023/02/25 11:12:23;;;;;;;54.65;35.00;;;;;;;;;;10343987;28;20097;-62
2023/02/25 11:17:21;;;;;;;42.55;31.92;;;;;;;;;;10336668;28;20488;-62
2023/02/25 11:22:21;;;;;;;52.53;32.65;;;;;;;;;;10343819;28;20513;-61
2023/02/25 11:27:25;;;;;;;35.58;21.15;;;;;;;;;;10343353;28;20337;-61
2023/02/25 11:32:24;;;;;;;34.95;23.77;;;;;;;;;;10343481;28;20083;-61
2023/02/25 11:37:27;;;;;;;50.83;35.40;;;;;;;;;;10343557;28;20071;-61
2023/02/25 11:42:28;;;;;;;35.28;26.92;;;;;;;;;;10342866;28;20458;-61
2023/02/25 11:47:28;;;;;;;35.08;23.55;;;;;;;;;;10340834;28;20091;-61
2023/02/25 11:52:31;;;;;;;45.78;30.77;;;;;;;;;;10343476;28;20067;-61
2023/02/25 11:57:34;;;;;;;40.80;25.55;;;;;;;;;;10344249;28;20075;-62
2023/02/25 12:02:39;;;;;;;41.67;27.10;;;;;;;;;;10341713;28;20076;-62
2023/02/25 12:07:52;;;;;;;25.40;18.27;;;;;;;;;;10341052;28;20079;-61
2023/02/25 12:13:22;;;;;;;32.92;19.55;;;;;;;;;;10341072;28;20080;-60
2023/02/25 12:18:39;;;;;;;25.00;16.63;;;;;;;;;;10343412;28;20127;-62
2023/02/25 12:23:55;;;;;;;28.55;19.55;;;;;;;;;;10339711;28;20083;-62
2023/02/25 12:28:58;;;;;;;34.35;20.55;;;;;;;;;;10340413;28;20071;-61
2023/02/25 12:34:08;;;;;;;35.72;26.38;;;;;;;;;;10339975;28;20469;-62
2023/02/25 12:39:24;;;;;;;26.65;15.45;;;;;;;;;;10339815;28;20075;-62
2023/02/25 12:44:41;;;;;;;29.20;17.10;;;;;;;;;;10339102;28;20075;-61
2023/02/25 12:49:50;;;;;;;40.38;27.70;;;;;;;;;;10334738;28;20072;-61
2023/02/25 12:55:04;;;;;;;26.45;18.17;;;;;;;;;;10340100;28;20059;-61
2023/02/25 13:00:11;;;;;;;31.75;18.40;;;;;;;;;;10339342;28;20065;-62
2023/02/25 13:05:21;;;;;;;29.63;19.92;;;;;;;;;;10338891;28;20075;-62
2023/02/25 13:10:34;;;;;;;31.63;21.92;;;;;;;;;;10337288;28;20060;-62
2023/02/25 13:15:39;;;;;;;33.72;25.05;;;;;;;;;;10339252;28;21191;-62
2023/02/25 13:20:37;;;;;;;;;;;;;;;;;;10336850;28;20142;-62
2023/02/25 13:25:46;;;;;;;31.20;21.20;;;;;;;;;;10338123;28;19959;-62
2023/02/25 13:30:49;;;;;;;33.53;22.80;;;;;;;;;;10340543;28;20068;-62
2023/02/25 13:35:53;;;;;;;52.60;37.67;;;;;;;;;;10337605;28;20080;-62
2023/02/25 13:40:58;;;;;;;31.93;22.63;;;;;;;;;;10341668;28;20075;-62
2023/02/25 13:46:05;;;;;;;27.30;16.98;;;;;;;;;;10346016;28;20126;-62
2023/02/25 13:51:19;;;;;;;32.13;23.92;;;;;;;;;;10357471;28;20052;-62
2023/02/25 13:56:27;;;;;;;27.80;18.67;;;;;;;;;;10341913;28;20082;-62
2023/02/25 14:01:30;;;;;;;31.70;19.52;;;;;;;;;;10343333;28;20075;-62
2023/02/25 14:06:37;;;;;;;32.13;21.60;;;;;;;;;;10338988;28;20068;-62
2023/02/25 14:11:43;;;;;;;45.80;26.70;;;;;;;;;;10343428;28;20463;-62
2023/02/25 14:16:49;;;;;;;39.45;28.13;;;;;;;;;;10341694;28;20064;-62
2023/02/25 14:22:09;;;;;;;50.80;43.30;;;;;;;;;;10348769;28;20499;-62
2023/02/25 14:27:12;;;;;;;51.55;37.10;;;;;;;;;;10346904;28;20068;-62
2023/02/25 14:32:18;;;;;;;93.47;56.08;;;;;;;;;;10346333;28;20068;-62
2023/02/25 14:37:28;;;;;;;53.85;38.97;;;;;;;;;;10349950;28;20102;-63
2023/02/25 14:42:32;;;;;;;47.03;35.13;;;;;;;;;;10344470;28;20086;-63
2023/02/25 14:47:34;;;;;;;38.53;28.33;;;;;;;;;;10361053;28;20071;-62
2023/02/25 14:52:41;;;;;;;33.90;28.40;;;;;;;;;;10354661;28;20096;-62
2023/02/25 14:57:57;;;;;;;33.92;25.88;;;;;;;;;;10342717;28;20075;-62
2023/02/25 15:03:03;;;;;;;58.88;34.53;;;;;;;;;;10323878;28;20079;-62
2023/02/25 15:08:23;;;;;;;70.18;53.78;;;;;;;;;;10340200;28;20072;-62
2023/02/25 15:13:43;;;;;;;51.40;33.92;;;;;;;;;;10345325;28;20065;-61
2023/02/25 15:18:56;;;;;;;119.05;73.78;;;;;;;;;;10345536;28;20083;-61
2023/02/25 15:23:55;;;;;;;90.03;50.10;;;;;;;;;;10341530;28;20072;-64
2023/02/25 15:28:53;;;;;;;71.40;44.78;;;;;;;;;;10343946;28;20529;-63
2023/02/25 15:33:54;;;;;;;112.88;75.95;;;;;;;;;;10345255;28;20068;-64
2023/02/25 15:38:54;;;;;;;76.15;50.78;;;;;;;;;;10347268;28;20071;-63
2023/02/25 15:43:53;;;;;;;69.05;42.00;;;;;;;;;;10343084;28;20080;-63
2023/02/25 15:49:04;;;;;;;37.25;23.42;;;;;;;;;;10337904;28;20072;-64
2023/02/25 15:54:02;;;;;;;68.63;39.20;;;;;;;;;;10340655;28;20736;-64
2023/02/25 15:59:00;;;;;;;92.20;52.78;;;;;;;;;;10344424;28;20072;-64
2023/02/25 16:03:58;;;;;;;56.42;34.88;;;;;;;;;;10344204;28;20079;-64
2023/02/25 16:09:03;;;;;;;86.32;53.05;;;;;;;;;;10344336;28;20078;-63
2023/02/25 16:14:04;;;;;;;82.70;53.03;;;;;;;;;;10348799;28;20052;-63
2023/02/25 16:19:03;;;;;;;44.10;29.20;;;;;;;;;;10355161;28;20064;-62
2023/02/25 16:24:06;;;;;;;40.28;23.42;;;;;;;;;;10356932;28;20500;-63
2023/02/25 16:29:10;;;;;;;37.95;23.88;;;;;;;;;;10362563;28;20075;-63
2023/02/25 16:34:12;;;;;;;49.73;34.00;;;;;;;;;;10345893;28;20060;-63
2023/02/25 16:39:13;;;;;;;27.00;18.30;;;;;;;;;;10334904;28;20064;-62
2023/02/25 16:44:16;;;;;;;53.25;28.80;;;;;;;;;;10338691;28;20485;-63
2023/02/25 16:49:19;;;;;;;51.42;32.35;;;;;;;;;;10344805;28;20079;-63
2023/02/25 16:54:21;;;;;;;35.30;20.08;;;;;;;;;;10340557;28;20063;-63
2023/02/25 16:59:20;;;;;;;29.42;17.88;;;;;;;;;;10352528;28;20064;-62
2023/02/25 17:04:20;;;;;;;32.92;16.83;;;;;;;;;;10346063;28;20070;-62
2023/02/25 17:09:23;;;;;;;35.55;23.73;;;;;;;;;;10358508;28;20509;-63
2023/02/25 17:14:22;;;;;;;30.00;17.58;;;;;;;;;;10356167;28;20784;-62
2023/02/25 17:19:22;;;;;;;27.67;20.38;;;;;;;;;;10334645;28;20072;-63
2023/02/25 17:24:22;;;;;;;43.80;29.33;;;;;;;;;;10347952;28;20513;-63
2023/02/25 17:29:22;;;;;;;28.55;13.80;;;;;;;;;;10350773;28;20071;-62
2023/02/25 17:34:25;;;;;;;47.00;22.77;;;;;;;;;;10357688;28;20063;-63
2023/02/25 17:39:23;;;;;;;35.90;17.23;;;;;;;;;;10355286;28;20072;-62
2023/02/25 17:44:41;;;;;;;172.88;93.18;;;;;;;;;;10354434;28;20091;-63
2023/02/25 17:49:42;;;;;;;252.25;132.18;;;;;;;;;;10347954;28;20075;-62
2023/02/25 17:54:44;;;;;;;91.53;53.53;;;;;;;;;;10351813;28;20076;-63
2023/02/25 17:59:47;;;;;;;164.13;88.05;;;;;;;;;;10366902;28;20067;-63
2023/02/25 18:04:49;;;;;;;212.52;108.32;;;;;;;;;;10349434;28;20067;-63
2023/02/25 18:09:48;;;;;;;52.13;28.60;;;;;;;;;;10359580;28;20071;-63
2023/02/25 18:14:51;;;;;;;119.55;53.35;;;;;;;;;;10362364;27;20064;-62
2023/02/25 18:19:50;;;;;;;238.55;101.65;;;;;;;;;;10353081;28;20076;-63
2023/02/25 18:24:53;;;;;;;142.65;56.33;;;;;;;;;;10357859;28;20055;-61
2023/02/25 18:29:51;;;;;;;118.50;46.90;;;;;;;;;;10350948;28;20080;-62
2023/02/25 18:34:51;;;;;;;61.67;31.95;;;;;;;;;;10350096;28;20063;-61
2023/02/25 18:39:50;;;;;;;71.70;36.42;;;;;;;;;;10346688;28;20079;-63
2023/02/25 18:44:48;;;;;;;46.05;22.60;;;;;;;;;;10347295;28;20075;-63
2023/02/25 18:49:47;;;;;;;171.02;81.07;;;;;;;;;;10348419;28;20063;-62
2023/02/25 18:54:47;;;;;;;53.33;28.83;;;;;;;;;;10345257;28;20071;-62
2023/02/25 18:59:45;;;;;;;34.70;19.15;;;;;;;;;;10350053;28;20524;-62
2023/02/25 19:04:43;;;;;;;45.55;27.35;;;;;;;;;;10359448;28;20071;-62
2023/02/25 19:09:42;;;;;;;42.65;26.33;;;;;;;;;;10348937;28;20074;-61
2023/02/25 19:14:41;;;;;;;46.35;30.65;;;;;;;;;;10348866;28;20079;-62
2023/02/25 19:19:39;;;;;;;41.70;27.38;;;;;;;;;;10349186;28;20082;-62
2023/02/25 19:24:38;;;;;;;51.60;32.70;;;;;;;;;;10347384;28;20087;-63
2023/02/25 19:29:36;;;;;;;47.28;29.10;;;;;;;;;;10344284;28;20515;-63
2023/02/25 19:34:35;;;;;;;35.00;23.55;;;;;;;;;;10354159;28;20512;-63
2023/02/25 19:39:35;;;;;;;28.48;15.27;;;;;;;;;;10345619;28;20086;-62
2023/02/25 19:44:33;;;;;;;27.25;15.23;;;;;;;;;;10345375;28;20482;-63
2023/02/25 19:49:31;;;;;;;33.45;17.95;;;;;;;;;;10360047;28;20075;-63
2023/02/25 19:54:29;;;;;;;32.97;19.27;;;;;;;;;;10357498;28;20075;-63
2023/02/25 19:59:30;;;;;;;42.00;26.85;;;;;;;;;;10362964;28;20102;-63
2023/02/25 20:04:28;;;;;;;57.13;30.63;;;;;;;;;;10334272;28;20063;-63
2023/02/25 20:09:27;;;;;;;42.38;18.98;;;;;;;;;;10338753;28;20095;-62
2023/02/25 20:14:26;;;;;;;36.17;16.25;;;;;;;;;;10339120;28;20068;-64
2023/02/25 20:19:29;;;;;;;29.63;17.95;;;;;;;;;;10344182;28;20086;-63
2023/02/25 20:24:27;;;;;;;19.38;12.25;;;;;;;;;;10337537;28;20064;-63
2023/02/25 20:29:25;;;;;;;29.58;13.70;;;;;;;;;;10340294;28;20067;-63
2023/02/25 20:34:25;;;;;;;27.20;14.50;;;;;;;;;;10344337;28;20079;-64
2023/02/25 20:39:41;;;;;;;24.17;11.52;;;;;;;;;;10342685;28;20074;-64
2023/02/25 20:44:40;;;;;;;24.70;11.82;;;;;;;;;;10344631;28;20074;-64
2023/02/25 20:49:39;;;;;;;22.60;12.13;;;;;;;;;;10341899;28;20548;-63
2023/02/25 20:54:39;;;;;;;32.78;19.08;;;;;;;;;;10339910;28;20078;-63
2023/02/25 20:59:38;;;;;;;42.83;27.65;;;;;;;;;;10335682;28;20071;-63
2023/02/25 21:04:37;;;;;;;38.67;22.80;;;;;;;;;;10339702;28;20109;-63
2023/02/25 21:09:35;;;;;;;46.92;31.67;;;;;;;;;;10337025;28;20486;-63
2023/02/25 21:14:35;;;;;;;80.30;52.53;;;;;;;;;;10336640;28;20101;-63
2023/02/25 21:19:33;;;;;;;50.40;28.50;;;;;;;;;;10335738;28;20072;-63
2023/02/25 21:24:32;;;;;;;48.40;29.75;;;;;;;;;;10337949;28;20072;-63
2023/02/25 21:29:31;;;;;;;41.50;25.73;;;;;;;;;;10342861;28;20079;-63
2023/02/25 21:34:30;;;;;;;40.10;21.90;;;;;;;;;;10348284;28;20076;-63
2023/02/25 21:39:28;;;;;;;34.17;19.60;;;;;;;;;;10347747;28;20484;-63
2023/02/25 21:44:27;;;;;;;36.47;18.80;;;;;;;;;;10347412;28;20064;-63
2023/02/25 21:49:26;;;;;;;26.95;13.27;;;;;;;;;;10348319;28;20071;-63
2023/02/25 21:54:27;;;;;;;28.00;13.23;;;;;;;;;;10348617;28;20067;-63
2023/02/25 21:59:26;;;;;;;25.88;14.45;;;;;;;;;;10350783;28;20653;-63
2023/02/25 22:04:24;;;;;;;60.83;36.88;;;;;;;;;;10347182;28;20143;-64
2023/02/25 22:09:22;;;;;;;35.00;21.77;;;;;;;;;;10350978;28;20072;-63
2023/02/25 22:14:23;;;;;;;31.13;18.65;;;;;;;;;;10352728;28;20078;-63
2023/02/25 22:19:21;;;;;;;56.97;33.55;;;;;;;;;;10345717;28;20512;-63
2023/02/25 22:24:19;;;;;;;46.70;28.45;;;;;;;;;;10344796;28;20158;-63
2023/02/25 22:29:17;;;;;;;41.85;28.80;;;;;;;;;;10342871;28;20071;-64
2023/02/25 22:34:17;;;;;;;65.55;46.33;;;;;;;;;;10344842;28;20480;-63
2023/02/25 22:39:15;;;;;;;32.35;26.45;;;;;;;;;;10346566;28;20064;-63
2023/02/25 22:44:14;;;;;;;29.95;22.73;;;;;;;;;;10342590;28;20068;-64
2023/02/25 22:49:12;;;;;;;24.13;15.77;;;;;;;;;;10344480;28;20072;-63
2023/02/25 22:54:12;;;;;;;21.98;14.60;;;;;;;;;;10345329;28;20087;-63
2023/02/25 22:59:10;;;;;;;27.83;16.85;;;;;;;;;;10348206;28;20513;-63
2023/02/25 23:04:09;;;;;;;24.15;15.43;;;;;;;;;;10347803;28;20070;-62
2023/02/25 23:09:07;;;;;;;21.23;15.90;;;;;;;;;;10345125;28;20544;-62
2023/02/25 23:14:07;;;;;;;27.63;16.88;;;;;;;;;;10352541;28;20063;-63
2023/02/25 23:19:05;;;;;;;34.08;16.67;;;;;;;;;;10345336;28;20071;-62
2023/02/25 23:24:04;;;;;;;28.48;17.48;;;;;;;;;;10344514;28;20067;-62
2023/02/25 23:29:03;;;;;;;17.23;12.52;;;;;;;;;;10342504;28;20072;-62
2023/02/25 23:34:05;;;;;;;21.77;12.68;;;;;;;;;;10344977;28;20067;-62
2023/02/25 23:39:04;;;;;;;20.23;12.90;;;;;;;;;;10344392;28;20071;-63
2023/02/25 23:44:02;;;;;;;16.52;12.25;;;;;;;;;;10348094;28;20088;-62
2023/02/25 23:49:01;;;;;;;24.92;13.70;;;;;;;;;;10344320;28;20123;-62
2023/02/25 23:54:02;;;;;;;25.15;15.60;;;;;;;;;;10342504;28;20502;-62
2023/02/25 23:59:00;;;;;;;20.55;12.23;;;;;;;;;;10342759;28;20075;-62
